Terminal Aerodrome Forecast
Issued by NWS

Home | Current Version | Previous Version | Text Only | Print | Product List | Glossary On
Versions: 1 2 3 4 5 6 7 8 9 10 11 12 13 14 15 16 17 18 19
000
FTUS41 KBTV 211501 AAA
TAFMSS
TAF AMD
KMSS 211501Z 2115/2212 07005KT 4SM BR OVC006
     FM211700 VRB03KT P6SM OVC020
     FM220000 07003KT 5SM BR OVC008=

USA.gov is the U.S. government's official web portal to all federal, state and local government web resources and services.